createdAt,value
2018-05-06T00:00:49.537Z,62.60
2018-05-06T00:03:17.830Z,62.60
2018-05-06T00:05:46.109Z,62.80
2018-05-06T00:08:14.392Z,62.80
2018-05-06T00:10:42.670Z,63.00
2018-05-06T00:13:10.916Z,63.40
2018-05-06T00:15:39.953Z,63.80
2018-05-06T00:18:08.201Z,63.80
2018-05-06T00:20:36.469Z,64.30
2018-05-06T00:23:05.500Z,66.30
2018-05-06T00:25:33.740Z,66.20
2018-05-06T00:28:02.763Z,66.60
2018-05-06T00:30:31.061Z,66.60
2018-05-06T00:32:59.328Z,66.10
2018-05-06T00:35:27.620Z,66.10
2018-05-06T00:37:55.877Z,66.50
2018-05-06T00:40:24.117Z,66.60
2018-05-06T00:42:52.379Z,67.20
2018-05-06T00:45:20.617Z,67.10
2018-05-06T00:47:48.927Z,67.40
2018-05-06T00:50:17.167Z,67.50
2018-05-06T00:52:46.190Z,68.00
2018-05-06T00:55:14.432Z,68.00
2018-05-06T00:57:43.481Z,68.20
2018-05-06T01:00:11.719Z,68.20
2018-05-06T01:02:40.853Z,68.50
2018-05-06T01:05:09.096Z,68.40
2018-05-06T01:07:38.132Z,68.90
2018-05-06T01:10:06.373Z,68.90
2018-05-06T01:12:35.534Z,68.90
2018-05-06T01:15:03.780Z,68.90
2018-05-06T01:17:32.064Z,69.20
2018-05-06T01:20:00.329Z,69.90
2018-05-06T01:22:28.625Z,70.30
2018-05-06T01:24:56.880Z,70.40
2018-05-06T01:27:25.128Z,70.60
2018-05-06T01:29:53.389Z,70.90
2018-05-06T01:32:21.633Z,72.20
2018-05-06T01:34:49.884Z,72.10
2018-05-06T01:37:18.919Z,72.90
2018-05-06T01:39:47.236Z,72.70
2018-05-06T01:42:15.468Z,73.40
2018-05-06T01:44:43.724Z,73.60
2018-05-06T01:47:12.032Z,73.50
2018-05-06T01:49:40.288Z,74.30
2018-05-06T01:52:08.539Z,75.30
2018-05-06T01:54:36.818Z,75.70
2018-05-06T01:57:05.044Z,76.00
2018-05-06T01:59:33.291Z,75.90
2018-05-06T02:02:02.306Z,77.90
2018-05-06T02:04:30.611Z,77.90
2018-05-06T02:06:58.853Z,78.30
2018-05-06T02:09:27.889Z,79.10
2018-05-06T02:11:56.134Z,79.10
2018-05-06T02:14:25.158Z,79.60
2018-05-06T02:16:53.393Z,79.50
2018-05-06T02:19:21.716Z,80.00
2018-05-06T02:21:49.959Z,80.40
2018-05-06T02:24:18.968Z,81.50
2018-05-06T02:26:47.990Z,81.80
2018-05-06T02:29:16.220Z,81.70
2018-05-06T02:31:44.482Z,81.90
2018-05-06T02:34:12.738Z,82.30
2018-05-06T02:36:40.993Z,82.60
2018-05-06T02:39:09.237Z,82.50
2018-05-06T02:41:37.585Z,83.00
2018-05-06T02:44:05.827Z,82.80
2018-05-06T02:46:34.170Z,83.00
2018-05-06T02:49:02.400Z,83.30
2018-05-06T02:51:30.660Z,83.30
2018-05-06T02:53:59.685Z,84.50
2018-05-06T02:56:27.958Z,84.50
2018-05-06T02:58:56.205Z,84.50
2018-05-06T03:01:25.232Z,84.70
2018-05-06T03:03:53.525Z,84.70
2018-05-06T03:06:21.805Z,85.10
2018-05-06T03:08:50.186Z,84.90
2018-05-06T03:11:18.464Z,84.90
2018-05-06T03:13:46.740Z,84.80
2018-05-06T03:16:15.006Z,84.80
2018-05-06T03:18:43.252Z,84.90
2018-05-06T03:21:11.584Z,84.90
2018-05-06T03:23:39.832Z,85.00
2018-05-06T03:26:08.863Z,85.30
2018-05-06T03:28:37.167Z,85.30
2018-05-06T03:31:05.432Z,85.20
2018-05-06T03:33:33.698Z,85.00
2018-05-06T03:36:01.983Z,85.10
2018-05-06T03:38:30.232Z,85.40
2018-05-06T03:40:58.479Z,85.00
2018-05-06T03:43:27.502Z,85.10
2018-05-06T03:45:56.508Z,84.80
2018-05-06T03:48:24.757Z,84.70
2018-05-06T03:50:53.764Z,85.70
2018-05-06T03:53:22.792Z,84.80
2018-05-06T03:56:03.052Z,84.70
2018-05-06T03:58:43.056Z,84.50
2018-05-06T04:01:11.385Z,85.00
2018-05-06T04:03:39.672Z,85.70
2018-05-06T04:06:08.052Z,85.80
2018-05-06T04:08:36.328Z,86.20
2018-05-06T04:11:04.569Z,86.10
2018-05-06T04:13:33.590Z,86.90
2018-05-06T04:16:02.589Z,87.70
2018-05-06T04:18:30.848Z,87.00
2018-05-06T04:20:59.852Z,87.70
2018-05-06T04:23:28.984Z,87.90
2018-05-06T04:25:57.274Z,88.00
2018-05-06T04:28:25.539Z,88.00
2018-05-06T04:30:53.777Z,88.40
2018-05-06T04:33:22.821Z,88.80
2018-05-06T04:35:51.058Z,88.80
2018-05-06T04:38:20.100Z,90.00
2018-05-06T04:40:48.349Z,89.60
2018-05-06T04:43:17.367Z,89.10
2018-05-06T04:45:45.613Z,89.10
2018-05-06T04:48:14.646Z,89.10
2018-05-06T04:50:42.927Z,89.80
2018-05-06T04:53:11.176Z,88.70
2018-05-06T04:55:40.234Z,88.80
2018-05-06T04:58:08.597Z,88.80
2018-05-06T05:00:36.876Z,89.30
2018-05-06T05:03:05.114Z,89.10
2018-05-06T05:05:34.144Z,89.10
2018-05-06T05:08:02.427Z,88.90
2018-05-06T05:10:30.684Z,89.10
2018-05-06T05:12:58.988Z,89.30
2018-05-06T05:15:27.249Z,89.10
2018-05-06T05:17:55.495Z,88.80
2018-05-06T05:20:23.755Z,88.10
2018-05-06T05:22:52.012Z,88.00
2018-05-06T05:25:20.264Z,87.50
2018-05-06T05:27:48.570Z,86.70
2018-05-06T05:30:16.830Z,86.10
2018-05-06T05:32:45.077Z,85.40
2018-05-06T05:35:13.445Z,85.20
2018-05-06T05:37:41.699Z,84.30
2018-05-06T05:40:09.952Z,83.50
2018-05-06T05:42:38.211Z,82.60
2018-05-06T05:45:06.474Z,81.90
2018-05-06T05:47:35.735Z,82.10
2018-05-06T05:50:04.126Z,81.30
2018-05-06T05:52:32.392Z,80.80
2018-05-06T05:55:00.683Z,79.80
2018-05-06T05:57:28.938Z,79.00
2018-05-06T05:59:57.184Z,79.10
2018-05-06T06:02:25.429Z,79.30
2018-05-06T06:04:53.686Z,79.10
2018-05-06T06:07:21.939Z,78.20
2018-05-06T06:09:50.982Z,73.50
2018-05-06T06:12:19.229Z,73.40
2018-05-06T06:14:47.529Z,71.30
2018-05-06T06:17:15.797Z,69.60
2018-05-06T06:19:44.068Z,68.40
2018-05-06T06:22:12.376Z,66.50
2018-05-06T06:24:40.793Z,65.40
2018-05-06T06:27:08.917Z,64.00
2018-05-06T06:29:37.256Z,60.70
2018-05-06T06:32:06.752Z,58.10
2018-05-06T06:34:34.977Z,58.10
2018-05-06T06:37:03.231Z,57.10
2018-05-06T06:39:32.272Z,55.20
2018-05-06T06:42:00.528Z,55.20
2018-05-06T06:44:28.828Z,55.30
2018-05-06T06:46:57.113Z,54.20
2018-05-06T06:49:25.388Z,52.80
2018-05-06T06:51:53.673Z,52.70
2018-05-06T06:54:21.947Z,51.30
2018-05-06T06:56:50.200Z,50.70
2018-05-06T06:59:19.237Z,50.90
2018-05-06T07:01:47.501Z,50.90
2018-05-06T07:04:15.784Z,50.40
2018-05-06T07:06:44.066Z,50.40
2018-05-06T07:09:12.313Z,50.90
2018-05-06T07:11:41.345Z,49.40
2018-05-06T07:14:09.604Z,49.40
2018-05-06T07:16:37.858Z,50.10
2018-05-06T07:19:06.903Z,49.20
2018-05-06T07:21:35.175Z,49.20
2018-05-06T07:24:03.453Z,48.80
2018-05-06T07:26:31.730Z,48.80
2018-05-06T07:29:00.069Z,47.70
2018-05-06T07:31:28.436Z,47.30
2018-05-06T07:33:56.664Z,46.30
2018-05-06T07:36:24.900Z,46.30
2018-05-06T07:38:53.238Z,44.80
2018-05-06T07:41:21.517Z,45.40
2018-05-06T07:43:49.890Z,45.20
2018-05-06T07:46:18.899Z,44.50
2018-05-06T07:48:47.136Z,44.40
2018-05-06T07:51:16.157Z,44.10
2018-05-06T07:53:44.460Z,44.10
2018-05-06T07:56:12.719Z,44.20
2018-05-06T07:58:41.017Z,44.00
2018-05-06T08:01:09.532Z,44.10
2018-05-06T08:03:37.792Z,44.70
2018-05-06T08:06:06.046Z,44.60
2018-05-06T08:08:34.293Z,43.50
2018-05-06T08:11:02.549Z,42.30
2018-05-06T08:13:30.781Z,41.70
2018-05-06T08:15:59.044Z,41.00
2018-05-06T08:18:28.048Z,40.60
2018-05-06T08:20:56.377Z,40.60
2018-05-06T08:23:24.620Z,40.10
2018-05-06T08:25:52.918Z,40.10
2018-05-06T08:28:21.195Z,39.60
2018-05-06T08:30:49.452Z,39.30
2018-05-06T08:33:17.756Z,38.70
2018-05-06T08:35:46.026Z,38.20
2018-05-06T08:38:14.266Z,37.50
2018-05-06T08:40:42.513Z,37.10
2018-05-06T08:43:10.871Z,36.50
2018-05-06T08:45:39.160Z,35.70
2018-05-06T08:48:07.436Z,34.40
2018-05-06T08:50:35.681Z,33.70
2018-05-06T08:53:04.713Z,32.50
2018-05-06T08:55:32.950Z,32.40
2018-05-06T08:58:01.992Z,32.20
2018-05-06T09:00:30.224Z,32.70
2018-05-06T09:02:59.252Z,32.60
2018-05-06T09:05:27.545Z,32.00
2018-05-06T09:07:55.816Z,31.80
2018-05-06T09:10:30.105Z,32.40
2018-05-06T09:13:00.061Z,33.20
2018-05-06T09:15:28.314Z,33.10
2018-05-06T09:17:57.337Z,34.20
2018-05-06T09:20:25.723Z,34.20
2018-05-06T09:22:53.997Z,35.00
2018-05-06T09:25:22.335Z,35.60
2018-05-06T09:27:50.568Z,35.30
2018-05-06T09:30:18.841Z,36.20
2018-05-06T09:32:47.119Z,36.50
2018-05-06T09:35:15.368Z,37.10
2018-05-06T09:37:44.387Z,38.00
2018-05-06T09:40:13.392Z,38.50
2018-05-06T09:42:41.647Z,38.50
2018-05-06T09:45:11.023Z,39.70
2018-05-06T09:47:39.696Z,39.70
2018-05-06T09:50:08.515Z,40.00
2018-05-06T09:52:38.285Z,41.20
2018-05-06T09:55:07.011Z,41.20
2018-05-06T09:57:35.912Z,41.20
2018-05-06T10:00:04.696Z,41.70
2018-05-06T10:02:33.285Z,41.50
2018-05-06T10:05:02.613Z,42.70
2018-05-06T10:07:31.176Z,42.60
2018-05-06T10:09:59.863Z,41.50
2018-05-06T10:12:28.500Z,41.90
2018-05-06T10:14:57.187Z,41.10
2018-05-06T10:17:25.756Z,41.90
2018-05-06T10:19:55.072Z,42.20
2018-05-06T10:22:23.553Z,42.10
2018-05-06T10:27:27.234Z,39.80
2018-05-06T10:29:56.035Z,40.10
2018-05-06T10:32:24.725Z,40.40
2018-05-06T10:34:54.131Z,39.90
2018-05-06T10:37:22.700Z,39.90
2018-05-06T10:39:51.245Z,40.50
2018-05-06T10:42:20.022Z,39.70
2018-05-06T10:44:49.445Z,40.00
2018-05-06T10:47:19.833Z,40.00
2018-05-06T10:49:48.522Z,40.00
2018-05-06T10:52:17.074Z,40.10
2018-05-06T10:54:45.590Z,41.00
2018-05-06T10:57:14.189Z,40.10
2018-05-06T10:59:42.608Z,40.20
2018-05-06T11:02:11.251Z,40.40
2018-05-06T11:04:39.692Z,40.30
2018-05-06T11:07:08.421Z,40.00
2018-05-06T11:09:37.588Z,39.90
2018-05-06T11:12:05.845Z,39.80
2018-05-06T11:14:34.085Z,40.20
2018-05-06T11:17:02.344Z,39.90
2018-05-06T11:19:30.588Z,40.20
2018-05-06T11:21:58.854Z,40.10
2018-05-06T11:24:27.866Z,40.50
2018-05-06T11:26:56.136Z,40.50
2018-05-06T11:29:24.388Z,41.30
2018-05-06T11:31:52.622Z,40.30
2018-05-06T11:34:20.898Z,40.50
2018-05-06T11:36:49.140Z,41.70
2018-05-06T11:39:17.400Z,40.70
2018-05-06T11:41:45.646Z,41.40
2018-05-06T11:44:13.901Z,41.00
2018-05-06T11:46:42.189Z,41.40
2018-05-06T11:49:10.470Z,41.40
2018-05-06T11:51:39.034Z,41.70
2018-05-06T11:54:08.398Z,42.60
2018-05-06T11:56:36.885Z,42.60
2018-05-06T11:59:05.367Z,41.60
2018-05-06T12:01:34.423Z,42.50
2018-05-06T12:04:02.684Z,42.40
2018-05-06T12:06:30.921Z,41.70
2018-05-06T12:08:59.175Z,41.20
2018-05-06T12:11:27.428Z,41.90
2018-05-06T12:13:55.737Z,41.80
2018-05-06T12:16:23.982Z,41.40
2018-05-06T12:18:53.133Z,41.80
2018-05-06T12:21:21.378Z,41.70
2018-05-06T12:23:49.657Z,42.50
2018-05-06T12:26:17.925Z,42.30
2018-05-06T12:28:46.185Z,42.30
2018-05-06T12:31:15.232Z,42.00
2018-05-06T12:33:43.526Z,42.00
2018-05-06T12:36:11.766Z,41.60
2018-05-06T12:38:40.067Z,42.00
2018-05-06T12:41:08.325Z,42.30
2018-05-06T12:43:37.336Z,42.20
2018-05-06T12:46:05.590Z,42.20
2018-05-06T12:48:33.844Z,41.70
2018-05-06T12:51:02.110Z,41.90
2018-05-06T12:53:30.402Z,41.80
2018-05-06T12:55:58.659Z,42.00
2018-05-06T12:58:26.903Z,42.10
2018-05-06T13:00:55.166Z,42.50
2018-05-06T13:03:23.416Z,42.50
2018-05-06T13:05:51.677Z,41.10
2018-05-06T13:08:19.912Z,41.00
2018-05-06T13:10:48.169Z,41.20
2018-05-06T13:13:17.183Z,41.90
2018-05-06T13:15:45.455Z,41.80
2018-05-06T13:18:14.483Z,42.30
2018-05-06T13:20:42.740Z,42.30
2018-05-06T13:23:10.990Z,42.50
2018-05-06T13:25:40.037Z,43.00
2018-05-06T13:28:08.357Z,42.40
2018-05-06T13:30:36.605Z,41.90
2018-05-06T13:33:04.877Z,42.40
2018-05-06T13:35:33.165Z,42.70
2018-05-06T13:38:02.275Z,43.20
2018-05-06T13:40:30.509Z,43.20
2018-05-06T13:42:59.536Z,40.70
2018-05-06T13:45:27.781Z,40.70
2018-05-06T13:47:56.819Z,42.80
2018-05-06T13:50:25.061Z,42.80
2018-05-06T13:52:54.090Z,43.20
2018-05-06T13:55:22.385Z,43.20
2018-05-06T13:57:50.644Z,43.70
2018-05-06T14:00:18.934Z,44.20
2018-05-06T14:02:47.211Z,44.10
2018-05-06T14:05:15.441Z,44.10
2018-05-06T14:07:43.709Z,44.70
2018-05-06T14:10:12.048Z,44.40
2018-05-06T14:12:40.314Z,44.50
2018-05-06T14:15:08.615Z,44.70
2018-05-06T14:17:36.864Z,44.80
2018-05-06T14:20:05.304Z,44.90
2018-05-06T14:22:33.580Z,44.70
2018-05-06T14:25:01.922Z,44.20
2018-05-06T14:27:30.332Z,44.40
2018-05-06T14:29:58.657Z,44.40
2018-05-06T14:32:26.885Z,44.70
2018-05-06T14:34:55.123Z,44.00
2018-05-06T14:37:23.412Z,44.30
2018-05-06T14:39:51.640Z,43.90
2018-05-06T14:42:19.902Z,42.00
2018-05-06T14:44:48.157Z,41.90
2018-05-06T14:50:21.454Z,41.90
2018-05-06T14:52:50.493Z,40.50
2018-05-06T14:55:18.768Z,40.60
2018-05-06T14:57:47.033Z,41.30
2018-05-06T15:00:16.329Z,41.00
2018-05-06T15:02:44.624Z,41.90
2018-05-06T15:05:12.915Z,41.90
2018-05-06T15:07:41.153Z,41.80
2018-05-06T15:10:10.183Z,41.50
2018-05-06T15:12:38.460Z,41.50
2018-05-06T15:15:06.718Z,41.80
2018-05-06T15:17:35.792Z,40.20
2018-05-06T15:20:04.131Z,40.10
2018-05-06T15:22:32.372Z,40.40
2018-05-06T15:25:01.396Z,39.90
2018-05-06T15:27:29.696Z,39.90
2018-05-06T15:29:57.965Z,41.80
2018-05-06T15:32:27.132Z,43.20
2018-05-06T15:34:56.150Z,44.30
2018-05-06T15:37:24.542Z,44.30
2018-05-06T15:39:53.344Z,44.00
2018-05-06T15:42:21.608Z,44.50
2018-05-06T15:44:49.892Z,44.00
2018-05-06T15:47:18.160Z,44.30
2018-05-06T15:49:46.804Z,44.60
2018-05-06T15:52:15.274Z,44.50
2018-05-06T15:54:43.879Z,44.50
2018-05-06T15:57:12.252Z,44.80
2018-05-06T15:59:40.791Z,44.50
2018-05-06T16:05:20.996Z,45.70
2018-05-06T16:07:49.245Z,45.20
2018-05-06T16:10:17.500Z,45.20
2018-05-06T16:12:45.741Z,45.30
2018-05-06T16:15:13.991Z,46.10
2018-05-06T16:17:42.338Z,46.50
2018-05-06T16:20:10.721Z,47.00
2018-05-06T16:22:38.986Z,46.90
2018-05-06T16:25:07.253Z,47.10
2018-05-06T16:27:35.508Z,46.40
2018-05-06T16:30:03.810Z,45.60
2018-05-06T16:32:32.064Z,46.30
2018-05-06T16:35:00.305Z,46.50
2018-05-06T16:37:28.577Z,46.60
2018-05-06T16:40:02.995Z,47.00
2018-05-06T16:42:32.553Z,47.80
2018-05-06T16:45:00.828Z,48.10
2018-05-06T16:47:29.111Z,47.40
2018-05-06T16:49:57.422Z,47.80
2018-05-06T16:52:26.042Z,47.70
2018-05-06T16:54:54.625Z,48.40
2018-05-06T16:57:23.253Z,48.40
2018-05-06T16:59:51.900Z,48.50
2018-05-06T17:02:20.374Z,49.10
2018-05-06T17:04:49.592Z,49.40
2018-05-06T17:07:18.789Z,49.40
2018-05-06T17:09:47.562Z,49.40
2018-05-06T17:12:16.168Z,50.10
2018-05-06T17:14:44.503Z,49.80
2018-05-06T17:17:12.799Z,49.60
2018-05-06T17:19:41.040Z,49.60
2018-05-06T17:22:09.380Z,50.10
2018-05-06T17:24:37.615Z,50.00
2018-05-06T17:27:05.904Z,50.10
2018-05-06T17:29:34.167Z,50.10
2018-05-06T17:32:02.423Z,50.20
2018-05-06T17:34:31.430Z,51.10
2018-05-06T17:37:00.452Z,50.50
2018-05-06T17:39:28.693Z,50.50
2018-05-06T17:41:57.730Z,51.20
2018-05-06T17:44:26.009Z,51.10
2018-05-06T17:46:54.293Z,50.90
2018-05-06T17:49:22.577Z,50.90
2018-05-06T17:51:50.834Z,52.10
2018-05-06T17:54:19.139Z,51.60
2018-05-06T17:56:47.408Z,51.50
2018-05-06T17:59:15.658Z,50.90
2018-05-06T18:01:44.753Z,51.10
2018-05-06T18:04:13.003Z,51.10
2018-05-06T18:06:41.251Z,51.30
2018-05-06T18:09:09.509Z,51.60
2018-05-06T18:11:37.811Z,51.90
2018-05-06T18:14:06.088Z,51.60
2018-05-06T18:16:34.397Z,52.00
2018-05-06T18:19:02.683Z,52.30
2018-05-06T18:21:30.966Z,52.20
2018-05-06T18:23:59.226Z,53.20
2018-05-06T18:26:27.503Z,52.50
2018-05-06T18:28:55.789Z,53.10
2018-05-06T18:31:24.056Z,53.90
2018-05-06T18:33:52.365Z,53.20
2018-05-06T18:36:20.592Z,53.10
2018-05-06T18:38:48.845Z,52.90
2018-05-06T18:41:17.888Z,52.60
2018-05-06T18:43:46.201Z,52.60
2018-05-06T18:46:14.426Z,52.50
2018-05-06T18:48:42.693Z,53.10
2018-05-06T18:51:10.943Z,53.10
2018-05-06T18:53:39.318Z,53.10
2018-05-06T18:56:07.538Z,53.80
2018-05-06T18:58:35.836Z,54.10
2018-05-06T19:01:04.096Z,54.40
2018-05-06T19:03:32.333Z,55.00
2018-05-06T19:06:02.104Z,55.20
2018-05-06T19:08:30.445Z,55.10
2018-05-06T19:10:59.480Z,54.80
2018-05-06T19:13:27.723Z,54.80
2018-05-06T19:15:56.741Z,55.30
2018-05-06T19:18:25.086Z,55.30
2018-05-06T19:20:53.390Z,55.20
2018-05-06T19:23:21.612Z,55.00
2018-05-06T19:25:50.585Z,55.00
2018-05-06T19:28:18.825Z,54.90
2018-05-06T19:30:47.077Z,55.00
2018-05-06T19:33:15.336Z,55.40
2018-05-06T19:35:43.657Z,55.00
2018-05-06T19:38:11.876Z,55.10
2018-05-06T19:40:40.150Z,55.40
2018-05-06T19:43:09.171Z,55.30
2018-05-06T19:45:37.490Z,55.30
2018-05-06T19:48:05.757Z,55.20
2018-05-06T19:50:34.363Z,55.30
2018-05-06T19:53:02.850Z,55.80
2018-05-06T19:55:31.336Z,55.70
2018-05-06T19:58:00.022Z,55.70
2018-05-06T20:00:28.545Z,55.80
2018-05-06T20:02:57.917Z,56.00
2018-05-06T20:05:26.342Z,56.00
2018-05-06T20:07:54.592Z,55.80
2018-05-06T20:10:23.616Z,56.20
2018-05-06T20:12:51.870Z,56.20
2018-05-06T20:15:20.191Z,56.40
2018-05-06T20:17:48.460Z,56.40
2018-05-06T20:20:16.757Z,56.30
2018-05-06T20:22:45.013Z,56.50
2018-05-06T20:25:14.022Z,56.80
2018-05-06T20:27:42.363Z,56.70
2018-05-06T20:30:10.594Z,57.00
2018-05-06T20:32:38.927Z,56.70
2018-05-06T20:35:07.176Z,56.80
2018-05-06T20:37:35.486Z,56.90
2018-05-06T20:40:03.709Z,57.10
2018-05-06T20:42:33.009Z,57.60
2018-05-06T20:45:01.247Z,57.50
2018-05-06T20:47:29.504Z,57.50
2018-05-06T20:49:57.811Z,57.70
2018-05-06T20:52:26.976Z,57.80
2018-05-06T20:54:55.268Z,57.80
2018-05-06T20:57:23.822Z,57.80
2018-05-06T20:59:52.071Z,57.90
2018-05-06T21:02:20.329Z,57.90
2018-05-06T21:04:48.572Z,57.90
2018-05-06T21:07:16.851Z,58.30
2018-05-06T21:09:45.092Z,58.30
2018-05-06T21:12:14.125Z,59.00
2018-05-06T21:14:42.413Z,58.70
2018-05-06T21:17:10.688Z,58.50
2018-05-06T21:19:38.972Z,58.40
2018-05-06T21:22:08.225Z,58.70
2018-05-06T21:24:36.517Z,58.70
2018-05-06T21:27:06.349Z,59.00
2018-05-06T21:29:34.649Z,59.10
2018-05-06T21:32:03.072Z,59.10
2018-05-06T21:34:31.332Z,59.20
2018-05-06T21:36:59.573Z,59.10
2018-05-06T21:39:28.589Z,59.80
2018-05-06T21:41:56.835Z,59.70
2018-05-06T21:44:25.909Z,60.00
2018-05-06T21:46:54.120Z,60.00
2018-05-06T21:49:23.497Z,60.00
2018-05-06T21:51:52.537Z,60.30
2018-05-06T21:54:20.800Z,60.20
2018-05-06T21:56:49.805Z,61.00
2018-05-06T21:59:18.832Z,60.50
2018-05-06T22:01:47.113Z,60.50
2018-05-06T22:04:15.385Z,61.10
2018-05-06T22:06:43.625Z,61.30
2018-05-06T22:09:12.665Z,62.00
2018-05-06T22:11:40.987Z,61.90
2018-05-06T22:14:09.232Z,61.70
2018-05-06T22:16:37.479Z,62.40
2018-05-06T22:19:05.783Z,62.30
2018-05-06T22:21:34.088Z,62.00
2018-05-06T22:24:02.331Z,61.70
2018-05-06T22:26:30.581Z,61.70
2018-05-06T22:28:59.583Z,61.90
2018-05-06T22:31:28.612Z,62.10
2018-05-06T22:33:56.887Z,62.10
2018-05-06T22:36:25.167Z,62.30
2018-05-06T22:38:53.416Z,61.90
2018-05-06T22:41:22.428Z,62.80
2018-05-06T22:43:50.676Z,62.70
2018-05-06T22:46:18.930Z,63.20
2018-05-06T22:48:47.184Z,63.50
2018-05-06T22:51:15.440Z,63.30
2018-05-06T22:53:44.441Z,63.70
2018-05-06T22:56:12.697Z,63.70
2018-05-06T22:58:40.944Z,63.40
2018-05-06T23:01:09.209Z,64.00
2018-05-06T23:03:37.494Z,63.90
2018-05-06T23:06:05.748Z,64.60
2018-05-06T23:08:34.041Z,64.60
2018-05-06T23:11:02.329Z,64.70
2018-05-06T23:13:30.573Z,64.90
2018-05-06T23:15:59.612Z,65.30
2018-05-06T23:18:27.878Z,65.40
2018-05-06T23:20:56.231Z,65.40
2018-05-06T23:23:24.416Z,65.60
2018-05-06T23:25:52.673Z,65.30
2018-05-06T23:28:21.009Z,65.00
2018-05-06T23:30:49.272Z,66.00
2018-05-06T23:33:17.523Z,65.70
2018-05-06T23:35:46.533Z,65.60
2018-05-06T23:38:15.544Z,65.90
2018-05-06T23:40:43.780Z,65.80
2018-05-06T23:43:12.056Z,65.90
2018-05-06T23:45:40.298Z,66.00
2018-05-06T23:48:08.576Z,66.50
2018-05-06T23:50:36.811Z,66.50
2018-05-06T23:53:05.837Z,66.70
2018-05-06T23:55:34.124Z,66.60
2018-05-06T23:58:02.389Z,67.30
